createdAt,value
2018-10-07T00:00:24.887Z,0.00
2018-10-07T00:01:24.865Z,0.00
2018-10-07T00:02:24.849Z,0.00
2018-10-07T00:03:24.844Z,0.00
2018-10-07T00:04:24.831Z,0.00
2018-10-07T00:05:24.832Z,0.00
2018-10-07T00:06:24.807Z,0.00
2018-10-07T00:07:24.811Z,0.00
2018-10-07T00:08:24.797Z,0.00
2018-10-07T00:09:24.773Z,0.00
2018-10-07T00:10:24.764Z,0.00
2018-10-07T00:11:24.752Z,0.00
2018-10-07T00:12:24.755Z,0.00
2018-10-07T00:13:24.727Z,0.00
2018-10-07T00:14:24.717Z,0.00
2018-10-07T00:15:24.707Z,0.00
2018-10-07T00:16:24.696Z,0.00
2018-10-07T00:17:24.722Z,0.00
2018-10-07T00:18:24.672Z,0.00
2018-10-07T00:19:24.663Z,0.00
2018-10-07T00:20:24.653Z,0.00
2018-10-07T00:21:24.640Z,0.00
2018-10-07T00:22:24.628Z,0.00
2018-10-07T00:23:24.649Z,0.00
2018-10-07T00:24:24.606Z,0.00
2018-10-07T00:25:24.593Z,0.00
2018-10-07T00:26:24.585Z,0.00
2018-10-07T00:27:24.576Z,0.00
2018-10-07T00:28:24.562Z,0.00
2018-10-07T00:29:24.560Z,0.00
2018-10-07T00:30:24.541Z,0.00
2018-10-07T00:31:24.547Z,0.00
2018-10-07T00:32:24.517Z,0.00
2018-10-07T00:33:24.506Z,0.00
2018-10-07T00:34:24.494Z,0.00
2018-10-07T00:35:24.486Z,0.00
2018-10-07T00:36:24.489Z,0.00
2018-10-07T00:37:24.463Z,0.00
2018-10-07T00:38:24.453Z,0.00
2018-10-07T00:39:24.438Z,0.00
2018-10-07T00:40:24.432Z,0.00
2018-10-07T00:41:24.435Z,0.00
2018-10-07T00:42:24.408Z,0.00
2018-10-07T00:43:24.395Z,0.00
2018-10-07T00:44:24.387Z,0.00
2018-10-07T00:45:24.372Z,0.00
2018-10-07T00:46:24.378Z,0.00
2018-10-07T00:47:24.369Z,0.00
2018-10-07T00:48:24.341Z,0.00
2018-10-07T00:49:24.333Z,0.00
2018-10-07T00:50:24.321Z,0.00
2018-10-07T00:51:24.320Z,0.00
2018-10-07T00:52:24.310Z,0.00
2018-10-07T00:53:24.324Z,0.00
2018-10-07T00:54:24.274Z,0.00
2018-10-07T00:55:24.266Z,0.00
2018-10-07T00:56:24.253Z,0.00
2018-10-07T00:57:24.243Z,0.00
2018-10-07T00:58:24.232Z,0.00
2018-10-07T00:59:24.232Z,0.00
2018-10-07T01:00:24.208Z,0.00
2018-10-07T01:01:24.196Z,0.00
2018-10-07T01:02:24.188Z,0.00
2018-10-07T01:03:24.175Z,0.00
2018-10-07T01:04:24.179Z,0.00
2018-10-07T01:05:24.154Z,0.00
2018-10-07T01:06:24.141Z,0.00
2018-10-07T01:07:24.132Z,0.00
2018-10-07T01:08:24.118Z,0.00
2018-10-07T01:09:24.123Z,0.00
2018-10-07T01:10:24.099Z,0.00
2018-10-07T01:11:24.086Z,0.00
2018-10-07T01:12:24.076Z,0.00
2018-10-07T01:13:24.076Z,0.00
2018-10-07T01:14:24.055Z,0.00
2018-10-07T01:15:24.054Z,0.00
2018-10-07T01:16:24.031Z,0.00
2018-10-07T01:17:24.018Z,0.00
2018-10-07T01:18:24.046Z,0.00
2018-10-07T01:19:23.999Z,0.00
2018-10-07T01:20:23.987Z,0.00
2018-10-07T01:21:23.973Z,0.00
2018-10-07T01:22:23.964Z,0.00
2018-10-07T01:23:23.950Z,0.00
2018-10-07T01:24:23.973Z,0.00
2018-10-07T01:25:23.931Z,0.00
2018-10-07T01:26:23.920Z,0.00
2018-10-07T01:27:23.909Z,0.00
2018-10-07T01:28:23.895Z,0.00
2018-10-07T01:29:23.889Z,0.00
2018-10-07T01:30:23.883Z,0.00
2018-10-07T01:31:23.884Z,0.00
2018-10-07T01:32:23.850Z,0.00
2018-10-07T01:33:23.844Z,0.00
2018-10-07T01:34:23.829Z,0.00
2018-10-07T01:35:23.823Z,0.00
2018-10-07T01:36:23.845Z,0.00
2018-10-07T01:37:23.800Z,0.00
2018-10-07T01:38:23.789Z,0.00
2018-10-07T01:39:23.776Z,0.00
2018-10-07T01:40:23.766Z,0.00
2018-10-07T01:41:23.754Z,0.00
2018-10-07T01:42:23.757Z,0.00
2018-10-07T01:43:23.732Z,0.00
2018-10-07T01:44:23.741Z,0.00
2018-10-07T01:45:23.706Z,0.00
2018-10-07T01:46:23.695Z,0.00
2018-10-07T01:47:23.688Z,0.00
2018-10-07T01:48:23.675Z,0.00
2018-10-07T01:49:23.663Z,0.00
2018-10-07T01:50:23.663Z,0.00
2018-10-07T01:51:23.642Z,0.00
2018-10-07T01:52:23.673Z,0.00
2018-10-07T01:53:23.619Z,0.00
2018-10-07T01:54:23.608Z,0.00
2018-10-07T01:55:23.600Z,0.00
2018-10-07T01:56:23.587Z,0.00
2018-10-07T01:57:23.576Z,0.00
2018-10-07T01:58:23.606Z,0.00
2018-10-07T01:59:23.629Z,0.00
2018-10-07T02:00:23.543Z,0.00
2018-10-07T02:01:23.531Z,0.00
2018-10-07T02:02:23.519Z,0.00
2018-10-07T02:03:23.508Z,0.00
2018-10-07T02:04:23.513Z,0.00
2018-10-07T02:05:23.488Z,0.00
2018-10-07T02:06:23.474Z,0.00
2018-10-07T02:07:23.466Z,0.00
2018-10-07T02:08:23.452Z,0.00
2018-10-07T02:09:23.455Z,0.00
2018-10-07T02:10:23.434Z,0.00
2018-10-07T02:11:23.424Z,0.00
2018-10-07T02:12:23.411Z,0.00
2018-10-07T02:13:23.430Z,0.00
2018-10-07T02:14:23.387Z,0.00
2018-10-07T02:15:23.373Z,0.00
2018-10-07T02:16:23.366Z,0.00
2018-10-07T02:17:23.355Z,0.00
2018-10-07T02:18:23.341Z,0.00
2018-10-07T02:19:23.344Z,0.00
2018-10-07T02:20:23.322Z,0.00
2018-10-07T02:21:23.310Z,0.00
2018-10-07T02:22:23.295Z,0.00
2018-10-07T02:23:23.285Z,0.00
2018-10-07T02:24:23.318Z,0.00
2018-10-07T02:25:23.267Z,0.00
2018-10-07T02:26:23.317Z,0.00
2018-10-07T02:27:23.243Z,0.00
2018-10-07T02:28:23.235Z,0.00
2018-10-07T02:29:23.217Z,0.00
2018-10-07T02:30:23.222Z,0.00
2018-10-07T02:31:23.199Z,0.00
2018-10-07T02:32:23.184Z,0.00
2018-10-07T02:33:23.177Z,0.00
2018-10-07T02:34:23.166Z,0.00
2018-10-07T02:35:23.166Z,0.00
2018-10-07T02:36:23.143Z,0.00
2018-10-07T02:37:23.134Z,0.00
2018-10-07T02:38:23.118Z,0.00
2018-10-07T02:39:23.107Z,0.00
2018-10-07T02:40:23.114Z,0.00
2018-10-07T02:41:23.102Z,0.00
2018-10-07T02:42:23.088Z,0.00
2018-10-07T02:43:23.065Z,0.00
2018-10-07T02:44:23.054Z,0.00
2018-10-07T02:45:23.042Z,0.00
2018-10-07T02:46:23.066Z,0.00
2018-10-07T02:47:23.019Z,0.00
2018-10-07T02:48:23.009Z,0.00
2018-10-07T02:49:23.001Z,0.00
2018-10-07T02:50:22.988Z,0.00
2018-10-07T02:51:22.975Z,0.00
2018-10-07T02:52:23.001Z,0.00
2018-10-07T02:53:23.091Z,0.00
2018-10-07T02:54:22.942Z,0.00
2018-10-07T02:55:22.933Z,0.00
2018-10-07T02:56:22.919Z,0.00
2018-10-07T02:57:22.911Z,0.00
2018-10-07T02:58:22.926Z,0.00
2018-10-07T02:59:22.886Z,0.00
2018-10-07T03:00:22.879Z,0.00
2018-10-07T03:01:22.864Z,0.00
2018-10-07T03:02:22.854Z,0.00
2018-10-07T03:03:22.846Z,0.00
2018-10-07T03:04:22.868Z,0.00
2018-10-07T03:05:22.823Z,0.00
2018-10-07T03:06:22.812Z,0.00
2018-10-07T03:07:22.799Z,0.00
2018-10-07T03:08:22.790Z,0.00
2018-10-07T03:09:22.776Z,0.00
2018-10-07T03:10:22.780Z,0.00
2018-10-07T03:11:22.755Z,0.00
2018-10-07T03:12:22.747Z,0.00
2018-10-07T03:13:22.731Z,0.00
2018-10-07T03:14:22.744Z,0.00
2018-10-07T03:15:22.711Z,0.00
2018-10-07T03:16:22.703Z,0.00
2018-10-07T03:17:22.692Z,0.00
2018-10-07T03:18:22.681Z,0.00
2018-10-07T03:19:22.669Z,0.00
2018-10-07T03:20:22.679Z,0.00
2018-10-07T03:21:22.649Z,0.00
2018-10-07T03:22:22.638Z,0.00
2018-10-07T03:23:22.626Z,0.00
2018-10-07T03:24:22.613Z,0.00
2018-10-07T03:25:22.601Z,0.00
2018-10-07T03:26:22.605Z,0.00
2018-10-07T03:27:22.583Z,0.00
2018-10-07T03:28:22.572Z,0.00
2018-10-07T03:29:22.623Z,0.00
2018-10-07T03:30:22.571Z,0.00
2018-10-07T03:31:22.539Z,0.00
2018-10-07T03:32:22.528Z,0.00
2018-10-07T03:33:22.517Z,0.00
2018-10-07T03:34:22.504Z,0.00
2018-10-07T03:35:22.498Z,0.00
2018-10-07T03:36:22.492Z,0.00
2018-10-07T03:37:22.471Z,0.00
2018-10-07T03:38:22.459Z,0.00
2018-10-07T03:39:22.450Z,0.00
2018-10-07T03:40:22.438Z,0.00
2018-10-07T03:41:22.436Z,0.00
2018-10-07T03:42:22.421Z,0.00
2018-10-07T03:43:22.408Z,0.00
2018-10-07T03:44:22.426Z,0.00
2018-10-07T03:45:22.387Z,0.00
2018-10-07T03:46:22.371Z,0.00
2018-10-07T03:47:22.361Z,0.00
2018-10-07T03:48:22.351Z,0.00
2018-10-07T03:49:22.339Z,0.00
2018-10-07T03:50:22.352Z,0.00
2018-10-07T03:51:22.316Z,0.00
2018-10-07T03:52:22.306Z,0.00
2018-10-07T03:53:22.296Z,0.00
2018-10-07T03:54:22.284Z,0.00
2018-10-07T03:55:22.271Z,0.00
2018-10-07T03:56:22.283Z,0.00
2018-10-07T03:57:22.249Z,0.00
2018-10-07T03:58:22.254Z,0.00
2018-10-07T03:59:22.230Z,0.00
2018-10-07T04:00:22.216Z,0.00
2018-10-07T04:01:22.204Z,0.00
2018-10-07T04:02:22.207Z,0.00
2018-10-07T04:03:22.185Z,0.00
2018-10-07T04:04:22.171Z,0.00
2018-10-07T04:05:22.160Z,0.00
2018-10-07T04:06:22.153Z,0.00
2018-10-07T04:07:22.159Z,0.00
2018-10-07T04:08:22.126Z,0.00
2018-10-07T04:09:22.119Z,0.00
2018-10-07T04:10:22.108Z,0.00
2018-10-07T04:11:22.097Z,0.00
2018-10-07T04:12:22.090Z,0.00
2018-10-07T04:13:22.082Z,0.00
2018-10-07T04:14:22.076Z,0.00
2018-10-07T04:15:22.048Z,0.00
2018-10-07T04:16:22.041Z,0.00
2018-10-07T04:17:22.030Z,0.00
2018-10-07T04:18:22.056Z,0.00
2018-10-07T04:19:22.005Z,0.00
2018-10-07T04:20:21.993Z,0.00
2018-10-07T04:21:21.989Z,0.00
2018-10-07T04:22:21.977Z,0.00
2018-10-07T04:23:21.960Z,0.00
2018-10-07T04:24:21.972Z,0.00
2018-10-07T04:25:21.938Z,0.00
2018-10-07T04:26:21.929Z,0.00
2018-10-07T04:27:21.923Z,0.00
2018-10-07T04:28:21.907Z,0.00
2018-10-07T04:29:21.896Z,0.00
2018-10-07T04:30:21.914Z,0.00
2018-10-07T04:31:21.875Z,0.00
2018-10-07T04:32:21.866Z,0.00
2018-10-07T04:33:21.854Z,0.00
2018-10-07T04:34:21.844Z,0.00
2018-10-07T04:35:21.833Z,0.00
2018-10-07T04:36:21.832Z,0.00
2018-10-07T04:37:21.810Z,0.00
2018-10-07T04:38:21.799Z,0.00
2018-10-07T04:39:21.785Z,0.00
2018-10-07T04:40:21.776Z,0.00
2018-10-07T04:41:21.782Z,0.00
2018-10-07T04:42:21.754Z,0.00
2018-10-07T04:43:21.746Z,0.00
2018-10-07T04:44:21.732Z,0.00
2018-10-07T04:45:21.724Z,0.00
2018-10-07T04:46:21.757Z,0.00
2018-10-07T04:47:21.700Z,0.00
2018-10-07T04:48:21.692Z,0.00
2018-10-07T04:49:21.681Z,0.00
2018-10-07T04:50:21.671Z,0.00
2018-10-07T04:51:21.657Z,0.00
2018-10-07T04:52:21.670Z,0.00
2018-10-07T04:53:21.637Z,0.00
2018-10-07T04:54:21.624Z,0.00
2018-10-07T04:55:21.616Z,0.00
2018-10-07T04:56:21.611Z,0.00
2018-10-07T04:57:21.592Z,0.00
2018-10-07T04:58:21.595Z,0.00
2018-10-07T04:59:21.571Z,0.00
2018-10-07T05:00:21.634Z,0.00
2018-10-07T05:01:21.547Z,0.00
2018-10-07T05:02:21.539Z,0.00
2018-10-07T05:03:21.542Z,0.00
2018-10-07T05:04:21.533Z,0.00
2018-10-07T05:05:21.505Z,0.00
2018-10-07T05:06:21.492Z,0.00
2018-10-07T05:07:21.484Z,0.00
2018-10-07T05:08:21.472Z,0.00
2018-10-07T05:09:21.471Z,0.00
2018-10-07T05:10:21.452Z,0.00
2018-10-07T05:11:21.442Z,4.00
2018-10-07T05:12:21.547Z,4.00
2018-10-07T05:13:21.434Z,0.00
2018-10-07T05:14:21.406Z,4.00
2018-10-07T05:15:21.398Z,4.00
2018-10-07T05:16:21.385Z,8.00
2018-10-07T05:17:21.384Z,8.00
2018-10-07T05:18:21.363Z,8.00
2018-10-07T05:19:21.355Z,8.00
2018-10-07T05:20:21.357Z,8.00
2018-10-07T05:21:21.335Z,16.00
2018-10-07T05:22:21.320Z,16.00
2018-10-07T05:23:21.312Z,20.00
2018-10-07T05:24:21.313Z,24.00
2018-10-07T05:25:21.289Z,28.00
2018-10-07T05:26:21.292Z,36.00
2018-10-07T05:27:21.268Z,40.00
2018-10-07T05:28:21.257Z,52.00
2018-10-07T05:29:21.244Z,56.00
2018-10-07T05:30:21.248Z,68.00
2018-10-07T05:31:21.225Z,76.00
2018-10-07T05:32:21.212Z,80.00
2018-10-07T05:33:21.253Z,100.00
2018-10-07T05:34:21.189Z,112.00
2018-10-07T05:35:21.197Z,116.00
2018-10-07T05:36:21.168Z,120.00
2018-10-07T05:37:21.159Z,136.00
2018-10-07T05:38:21.148Z,168.00
2018-10-07T05:39:21.134Z,192.00
2018-10-07T05:40:21.123Z,208.00
2018-10-07T05:41:21.128Z,212.00
2018-10-07T05:42:21.117Z,196.00
2018-10-07T05:43:21.096Z,192.00
2018-10-07T05:44:21.136Z,208.00
2018-10-07T05:45:21.069Z,248.00
2018-10-07T05:46:21.072Z,276.00
2018-10-07T05:47:21.050Z,320.00
2018-10-07T05:48:21.040Z,388.00
2018-10-07T05:49:21.027Z,420.00
2018-10-07T05:50:21.015Z,480.00
2018-10-07T05:51:21.019Z,552.00
2018-10-07T05:52:20.996Z,636.00
2018-10-07T05:53:20.981Z,744.00
2018-10-07T05:54:20.973Z,828.00
2018-10-07T05:55:20.964Z,908.00
2018-10-07T05:56:20.949Z,972.00
2018-10-07T05:57:20.956Z,996.00
2018-10-07T05:58:20.930Z,984.00
2018-10-07T05:59:20.921Z,996.00
2018-10-07T06:00:20.909Z,1004.00
2018-10-07T06:01:20.900Z,1068.00
2018-10-07T06:02:20.907Z,1096.00
2018-10-07T06:03:20.875Z,1160.00
2018-10-07T06:04:20.862Z,1224.00
2018-10-07T06:05:20.850Z,1228.00
2018-10-07T06:06:20.840Z,1196.00
2018-10-07T06:07:20.828Z,1200.00
2018-10-07T06:08:20.850Z,1216.00
2018-10-07T06:09:20.809Z,1180.00
2018-10-07T06:10:20.796Z,1204.00
2018-10-07T06:11:20.782Z,1268.00
2018-10-07T06:12:20.772Z,1344.00
2018-10-07T06:13:20.764Z,1288.00
2018-10-07T06:14:20.766Z,1244.00
2018-10-07T06:15:20.739Z,1216.00
2018-10-07T06:16:20.727Z,1328.00
2018-10-07T06:17:20.720Z,1492.00
2018-10-07T06:18:20.729Z,1504.00
2018-10-07T06:19:20.698Z,1732.00
2018-10-07T06:20:20.705Z,1860.00
2018-10-07T06:21:20.722Z,2016.00
2018-10-07T06:22:20.664Z,2144.00
2018-10-07T06:23:20.654Z,2228.00
2018-10-07T06:24:20.653Z,2340.00
2018-10-07T06:25:20.644Z,2416.00
2018-10-07T06:26:20.622Z,2484.00
2018-10-07T06:27:20.609Z,2500.00
2018-10-07T06:28:20.596Z,2632.00
2018-10-07T06:29:20.583Z,2704.00
2018-10-07T06:30:20.605Z,2936.00
2018-10-07T06:31:20.566Z,3064.00
2018-10-07T06:32:20.554Z,3208.00
2018-10-07T06:33:20.542Z,3648.00
2018-10-07T06:34:20.533Z,4112.00
2018-10-07T06:35:20.520Z,4976.00
2018-10-07T06:36:20.535Z,5056.00
2018-10-07T06:37:20.500Z,5436.00
2018-10-07T06:38:20.489Z,4896.00
2018-10-07T06:39:20.476Z,5640.00
2018-10-07T06:40:20.465Z,5284.00
2018-10-07T06:41:20.553Z,4968.00
2018-10-07T06:42:20.445Z,4488.00
2018-10-07T06:43:20.431Z,4416.00
2018-10-07T06:44:20.420Z,4508.00
2018-10-07T06:45:20.421Z,4868.00
2018-10-07T06:46:20.398Z,5692.00
2018-10-07T06:47:20.401Z,5648.00
2018-10-07T06:48:20.376Z,5696.00
2018-10-07T06:49:20.366Z,5652.00
2018-10-07T06:50:20.358Z,5776.00
2018-10-07T06:51:20.352Z,5856.00
2018-10-07T06:52:20.380Z,6192.00
2018-10-07T06:53:20.321Z,6352.00
2018-10-07T06:54:20.309Z,6644.00
2018-10-07T06:55:20.300Z,6576.00
2018-10-07T06:56:20.287Z,6792.00
2018-10-07T06:57:20.291Z,6808.00
2018-10-07T06:58:20.267Z,7004.00
2018-10-07T06:59:20.254Z,6984.00
2018-10-07T07:00:20.243Z,7428.00
2018-10-07T07:01:20.234Z,7808.00
2018-10-07T07:02:20.252Z,8392.00
2018-10-07T07:03:20.212Z,9176.00
2018-10-07T07:04:20.203Z,10148.00
2018-10-07T07:05:20.189Z,10964.00
2018-10-07T07:06:20.198Z,11576.00
2018-10-07T07:07:20.165Z,12280.00
2018-10-07T07:08:20.168Z,12920.00
2018-10-07T07:09:20.145Z,13880.00
2018-10-07T07:10:20.134Z,14204.00
2018-10-07T07:11:20.126Z,14128.00
2018-10-07T07:12:20.111Z,14312.00
2018-10-07T07:13:20.112Z,14100.00
2018-10-07T07:14:20.092Z,13648.00
2018-10-07T07:15:20.081Z,12992.00
2018-10-07T07:16:20.066Z,11984.00
2018-10-07T07:17:20.057Z,13320.00
2018-10-07T07:18:20.057Z,15680.00
2018-10-07T07:19:20.039Z,14552.00
2018-10-07T07:20:20.053Z,17408.00
2018-10-07T07:21:20.011Z,15616.00
2018-10-07T07:22:20.001Z,21024.00
2018-10-07T07:23:20.006Z,21888.00
2018-10-07T07:24:19.980Z,20864.00
2018-10-07T07:25:19.972Z,12608.00
2018-10-07T07:26:19.961Z,11512.00
2018-10-07T07:27:19.952Z,11768.00
2018-10-07T07:28:19.937Z,11668.00
2018-10-07T07:29:19.937Z,11928.00
2018-10-07T07:30:19.928Z,12416.00
2018-10-07T07:31:19.963Z,13324.00
2018-10-07T07:32:19.893Z,14552.00
2018-10-07T07:33:19.883Z,21344.00
2018-10-07T07:34:19.871Z,16576.00
2018-10-07T07:35:19.875Z,19552.00
2018-10-07T07:36:19.847Z,28608.00
2018-10-07T07:37:19.839Z,32608.00
2018-10-07T07:38:19.836Z,16768.00
2018-10-07T07:39:19.827Z,30528.00
2018-10-07T07:40:19.806Z,26528.00
2018-10-07T07:41:20.706Z,17632.00
2018-10-07T07:42:19.837Z,12160.00
2018-10-07T07:43:19.783Z,11804.00
2018-10-07T07:44:19.762Z,11636.00
2018-10-07T07:45:19.752Z,11660.00
2018-10-07T07:46:19.747Z,11748.00
2018-10-07T07:47:19.727Z,11956.00
2018-10-07T07:48:19.717Z,12304.00
2018-10-07T07:49:19.703Z,32480.00
2018-10-07T07:50:19.732Z,33088.00
2018-10-07T07:51:19.683Z,32800.00
2018-10-07T07:52:19.673Z,29824.00
2018-10-07T07:53:19.662Z,12220.00
2018-10-07T07:54:19.648Z,23008.00
2018-10-07T07:55:19.641Z,28224.00
2018-10-07T07:56:19.643Z,32896.00
2018-10-07T07:57:19.651Z,33632.00
2018-10-07T07:58:19.604Z,33536.00
2018-10-07T07:59:19.596Z,33856.00
2018-10-07T08:00:19.582Z,34624.00
2018-10-07T08:01:19.577Z,33504.00
2018-10-07T08:02:19.561Z,22528.00
2018-10-07T08:03:19.565Z,36256.00
2018-10-07T08:04:19.537Z,35840.00
2018-10-07T08:05:19.529Z,36128.00
2018-10-07T08:06:19.516Z,36384.00
2018-10-07T08:07:19.523Z,18400.00
2018-10-07T08:08:19.510Z,35456.00
2018-10-07T08:09:19.487Z,33088.00
2018-10-07T08:10:19.481Z,31008.00
2018-10-07T08:11:19.465Z,37600.00
2018-10-07T08:12:19.463Z,38304.00
2018-10-07T08:13:19.442Z,38944.00
2018-10-07T08:14:19.445Z,39040.00
2018-10-07T08:15:19.419Z,38368.00
2018-10-07T08:16:19.413Z,36352.00
2018-10-07T08:17:19.461Z,38688.00
2018-10-07T08:18:19.403Z,40128.00
2018-10-07T08:19:19.378Z,40064.00
2018-10-07T08:20:19.364Z,41440.00
2018-10-07T08:21:19.356Z,42176.00
2018-10-07T08:22:19.343Z,42304.00
2018-10-07T08:23:19.390Z,38784.00
2018-10-07T08:24:19.320Z,42944.00
2018-10-07T08:25:19.311Z,43328.00
2018-10-07T08:26:19.300Z,43392.00
2018-10-07T08:27:19.299Z,43712.00
2018-10-07T08:28:19.277Z,42400.00
2018-10-07T08:29:19.298Z,42048.00
2018-10-07T08:30:19.256Z,43392.00
2018-10-07T08:31:19.246Z,43488.00
2018-10-07T08:32:19.233Z,42080.00
2018-10-07T08:33:19.221Z,43168.00
2018-10-07T08:34:19.211Z,57216.00
2018-10-07T08:35:19.302Z,72640.00
2018-10-07T08:36:19.192Z,64736.00
2018-10-07T08:37:19.179Z,58432.00
2018-10-07T08:38:19.176Z,52672.00
2018-10-07T08:39:19.157Z,49664.00
2018-10-07T08:40:19.163Z,48800.00
2018-10-07T08:41:19.134Z,50400.00
2018-10-07T08:42:19.125Z,48448.00
2018-10-07T08:43:19.115Z,52512.00
2018-10-07T08:44:19.101Z,58176.00
2018-10-07T08:45:19.091Z,54880.00
2018-10-07T08:46:19.124Z,54592.00
2018-10-07T08:47:19.071Z,44192.00
2018-10-07T08:48:19.058Z,38336.00
2018-10-07T08:49:19.047Z,41984.00
2018-10-07T08:50:19.041Z,42304.00
2018-10-07T08:51:19.026Z,50176.00
2018-10-07T08:52:19.028Z,63008.00
2018-10-07T08:53:19.006Z,57760.00
2018-10-07T08:54:18.995Z,55904.00
2018-10-07T08:55:18.995Z,55360.00
2018-10-07T08:56:19.003Z,55712.00
2018-10-07T08:57:18.965Z,56288.00
2018-10-07T08:58:18.949Z,56096.00
2018-10-07T08:59:18.939Z,56480.00
2018-10-07T09:00:18.951Z,56416.00
2018-10-07T09:01:18.915Z,55232.00
2018-10-07T09:02:18.905Z,54400.00
2018-10-07T09:03:18.892Z,55328.00
2018-10-07T09:04:18.887Z,56000.00
2018-10-07T09:05:18.873Z,56192.00
2018-10-07T09:06:18.881Z,56704.00
2018-10-07T09:07:18.848Z,55360.00
2018-10-07T09:08:18.840Z,56800.00
2018-10-07T09:09:18.832Z,58272.00
2018-10-07T09:10:18.816Z,55712.00
2018-10-07T09:11:18.806Z,54272.00
2018-10-07T09:12:18.813Z,56160.00
2018-10-07T09:13:18.783Z,61024.00
2018-10-07T09:14:18.774Z,61600.00
2018-10-07T09:15:18.761Z,61248.00
2018-10-07T09:16:18.750Z,59328.00
2018-10-07T09:17:18.750Z,54176.00
2018-10-07T09:18:18.744Z,53504.00
2018-10-07T09:19:18.729Z,56032.00
2018-10-07T09:20:18.705Z,58144.00
2018-10-07T09:21:18.704Z,58880.00
2018-10-07T09:22:18.684Z,59200.00
2018-10-07T09:23:18.687Z,60192.00
2018-10-07T09:24:18.665Z,61920.00
2018-10-07T09:25:18.658Z,62432.00
2018-10-07T09:26:18.643Z,61184.00
2018-10-07T09:27:18.771Z,60608.00
2018-10-07T09:28:18.619Z,60000.00
2018-10-07T09:29:18.623Z,57024.00
2018-10-07T09:30:18.612Z,56704.00
2018-10-07T09:31:18.586Z,61376.00
2018-10-07T09:32:18.589Z,63968.00
2018-10-07T09:33:18.562Z,63616.00
2018-10-07T09:34:18.570Z,63136.00
2018-10-07T09:35:18.543Z,64608.00
2018-10-07T09:36:18.533Z,65536.00
2018-10-07T09:37:18.520Z,66176.00
2018-10-07T09:38:18.507Z,65280.00
2018-10-07T09:39:18.612Z,63904.00
2018-10-07T09:40:18.490Z,65184.00
2018-10-07T09:41:18.479Z,67808.00
2018-10-07T09:42:18.469Z,68896.00
2018-10-07T09:43:18.454Z,68800.00
2018-10-07T09:44:18.467Z,68864.00
2018-10-07T09:45:18.449Z,68608.00
2018-10-07T09:46:18.433Z,69152.00
2018-10-07T09:47:18.512Z,68640.00
2018-10-07T09:48:18.398Z,67680.00
2018-10-07T09:49:18.389Z,68416.00
2018-10-07T09:50:18.401Z,67968.00
2018-10-07T09:51:18.372Z,66848.00
2018-10-07T09:52:18.372Z,65184.00
2018-10-07T09:53:18.346Z,66816.00
2018-10-07T09:54:18.336Z,67552.00
2018-10-07T09:55:18.323Z,67776.00
2018-10-07T09:56:18.348Z,68544.00
2018-10-07T09:57:18.301Z,69696.00
2018-10-07T09:58:18.290Z,69600.00
2018-10-07T09:59:18.277Z,68960.00
2018-10-07T10:00:18.269Z,67552.00
2018-10-07T10:01:18.337Z,64800.00
2018-10-07T10:02:18.281Z,62688.00
2018-10-07T10:03:18.239Z,63328.00
2018-10-07T10:04:18.360Z,64704.00
2018-10-07T10:05:18.212Z,67584.00
2018-10-07T10:06:18.203Z,69312.00
2018-10-07T10:07:18.193Z,71392.00
2018-10-07T10:08:18.210Z,72672.00
2018-10-07T10:09:18.171Z,71104.00
2018-10-07T10:10:18.160Z,70272.00
2018-10-07T10:11:18.239Z,69920.00
2018-10-07T10:12:18.143Z,69472.00
2018-10-07T10:13:18.126Z,69568.00
2018-10-07T10:14:18.338Z,69984.00
2018-10-07T10:15:18.106Z,71040.00
2018-10-07T10:16:18.100Z,70336.00
2018-10-07T10:17:18.086Z,69344.00
2018-10-07T10:18:18.102Z,68096.00
2018-10-07T10:19:18.064Z,66720.00
2018-10-07T10:20:18.054Z,63968.00
2018-10-07T10:21:18.041Z,57536.00
2018-10-07T10:22:18.038Z,56768.00
2018-10-07T10:23:18.017Z,62176.00
2018-10-07T10:24:18.023Z,65920.00
2018-10-07T10:25:18.010Z,66976.00
2018-10-07T10:26:17.987Z,65632.00
2018-10-07T10:27:18.011Z,58720.00
2018-10-07T10:28:17.966Z,48480.00
2018-10-07T10:29:17.953Z,42944.00
2018-10-07T10:30:17.955Z,41088.00
2018-10-07T10:31:17.932Z,41728.00
2018-10-07T10:32:17.931Z,46592.00
2018-10-07T10:33:17.955Z,54560.00
2018-10-07T10:34:17.901Z,56864.00
2018-10-07T10:35:17.891Z,51616.00
2018-10-07T10:36:17.880Z,41312.00
2018-10-07T10:37:17.867Z,34336.00
2018-10-07T10:38:17.856Z,33280.00
2018-10-07T10:39:17.854Z,34208.00
2018-10-07T10:40:17.836Z,38848.00
2018-10-07T10:41:17.822Z,48832.00
2018-10-07T10:42:17.812Z,57536.00
2018-10-07T10:43:17.802Z,63008.00
2018-10-07T10:44:17.803Z,65216.00
2018-10-07T10:45:17.779Z,63776.00
2018-10-07T10:46:17.768Z,62784.00
2018-10-07T10:47:17.756Z,65280.00
2018-10-07T10:48:17.794Z,67456.00
2018-10-07T10:49:17.737Z,69120.00
2018-10-07T10:50:17.725Z,69440.00
2018-10-07T10:51:17.714Z,69152.00
2018-10-07T10:52:17.701Z,67392.00
2018-10-07T10:53:17.692Z,65600.00
2018-10-07T10:54:17.710Z,66560.00
2018-10-07T10:55:17.714Z,68320.00
2018-10-07T10:56:17.659Z,69824.00
2018-10-07T10:57:17.647Z,71680.00
2018-10-07T10:58:17.638Z,70880.00
2018-10-07T10:59:17.627Z,70976.00
2018-10-07T11:00:17.628Z,72000.00
2018-10-07T11:01:17.619Z,72384.00
2018-10-07T11:02:17.592Z,71584.00
2018-10-07T11:03:17.584Z,72160.00
2018-10-07T11:04:17.618Z,72160.00
2018-10-07T11:05:17.565Z,71648.00
2018-10-07T11:06:17.548Z,71136.00
2018-10-07T11:07:17.538Z,69440.00
2018-10-07T11:08:17.528Z,67168.00
2018-10-07T11:09:17.543Z,67296.00
2018-10-07T11:10:17.521Z,67584.00
2018-10-07T11:11:17.493Z,65984.00
2018-10-07T11:12:17.483Z,66080.00
2018-10-07T11:13:17.470Z,66336.00
2018-10-07T11:14:17.464Z,66240.00
2018-10-07T11:15:17.536Z,67264.00
2018-10-07T11:16:17.438Z,68736.00
2018-10-07T11:17:17.430Z,69824.00
2018-10-07T11:18:17.423Z,68640.00
2018-10-07T11:19:17.429Z,65920.00
2018-10-07T11:20:17.413Z,66144.00
2018-10-07T11:21:17.403Z,68480.00
2018-10-07T11:22:17.374Z,70048.00
2018-10-07T11:23:17.371Z,69600.00
2018-10-07T11:24:17.353Z,68640.00
2018-10-07T11:25:17.343Z,67072.00
2018-10-07T11:26:17.385Z,66496.00
2018-10-07T11:27:17.317Z,68704.00
2018-10-07T11:28:17.309Z,70176.00
2018-10-07T11:29:17.301Z,69408.00
2018-10-07T11:30:17.288Z,68064.00
2018-10-07T11:31:17.274Z,68640.00
2018-10-07T11:32:17.275Z,68224.00
2018-10-07T11:33:17.253Z,66880.00
2018-10-07T11:34:17.244Z,65952.00
2018-10-07T11:35:17.234Z,66688.00
2018-10-07T11:36:17.219Z,69760.00
2018-10-07T11:37:17.245Z,69600.00
2018-10-07T11:38:17.199Z,65664.00
2018-10-07T11:39:17.188Z,63744.00
2018-10-07T11:40:17.177Z,67264.00
2018-10-07T11:41:17.162Z,69856.00
2018-10-07T11:42:17.161Z,68640.00
2018-10-07T11:43:17.150Z,66592.00
2018-10-07T11:44:17.149Z,65920.00
2018-10-07T11:45:17.138Z,66656.00
2018-10-07T11:46:17.127Z,67040.00
2018-10-07T11:47:17.107Z,66496.00
2018-10-07T11:48:17.085Z,66688.00
2018-10-07T11:49:17.092Z,66848.00
2018-10-07T11:50:17.101Z,66176.00
2018-10-07T11:51:17.058Z,65664.00
2018-10-07T11:52:17.043Z,66208.00
2018-10-07T11:53:17.031Z,65600.00
2018-10-07T11:54:17.021Z,65920.00
2018-10-07T11:55:17.008Z,67328.00
2018-10-07T11:56:17.016Z,67424.00
2018-10-07T11:57:16.991Z,67968.00
2018-10-07T11:58:16.993Z,71040.00
2018-10-07T11:59:16.966Z,72448.00
2018-10-07T12:00:16.956Z,70624.00
2018-10-07T12:01:16.944Z,67232.00
2018-10-07T12:02:17.011Z,66976.00
2018-10-07T12:03:16.924Z,67264.00
2018-10-07T12:04:16.948Z,65728.00
2018-10-07T12:05:16.906Z,64192.00
2018-10-07T12:06:16.933Z,66112.00
2018-10-07T12:07:16.884Z,67648.00
2018-10-07T12:08:16.872Z,68512.00
2018-10-07T12:09:16.859Z,69216.00
2018-10-07T12:10:16.915Z,68064.00
2018-10-07T12:11:16.840Z,66656.00
2018-10-07T12:12:16.835Z,64896.00
2018-10-07T12:13:16.817Z,65408.00
2018-10-07T12:14:16.810Z,66272.00
2018-10-07T12:15:16.793Z,66816.00
2018-10-07T12:16:16.857Z,66784.00
2018-10-07T12:17:16.773Z,66208.00
2018-10-07T12:18:16.778Z,65216.00
2018-10-07T12:19:16.754Z,64672.00
2018-10-07T12:20:16.742Z,64576.00
2018-10-07T12:21:16.733Z,64416.00
2018-10-07T12:22:16.732Z,63936.00
2018-10-07T12:23:16.714Z,62272.00
2018-10-07T12:24:16.712Z,62720.00
2018-10-07T12:25:16.699Z,64512.00
2018-10-07T12:26:16.677Z,65728.00